FW1529 Guaymas MX current weather conditions

sailwx.info

Wind from 202 at 2 knots gusting 4

Air temperature 24.4° C
Dewpoint 22.1° C

Last reported at 2020-May-31 11:57 UTC.
Time now 2020-May-31 12:17 UTC

Location: N 28°14' W 110°38'.
View on Google Maps.

See reports from other nearby stations

  
Tides and Currents Weather Stations Pressure Air Temp Water Temp Dewpoint Dewpoint Depression Visibility Wind Speed Wind Dir Waves Ship Positions
date/time (UTC)wind fromknots sea level pressurealtimeterstation pressurevisibilityair tempwater tempwave heightnotes
2020-May-31 11:57 202 2 gusting 4 24.4
2020-May-31 11:47 180 2 gusting 5 23.9
2020-May-31 11:37 180 2 gusting 3 24.4
2020-May-31 11:27 157 3 gusting 5 24.4
2020-May-31 11:17 157 6 gusting 9 24.4
2020-May-31 11:07 157 3 gusting 5 24.4
2020-May-31 10:57 157 3 gusting 5 24.4
2020-May-31 10:47 180 3 gusting 5 24.4
2020-May-31 10:37 180 4 gusting 6 24.4
2020-May-31 10:27 180 3 gusting 5 24.4
2020-May-31 10:17 157 2 gusting 4 23.9
2020-May-31 10:07 180 2 gusting 3 24.4
2020-May-31 09:57 180 1 gusting 2 23.9
2020-May-31 09:47 180 2 gusting 4 24.4
2020-May-31 09:37 157 3 gusting 4 24.4
2020-May-31 09:27 157 3 gusting 5 24.4
2020-May-31 09:17 135 0 gusting 2 24.4
2020-May-31 09:07 112 1 gusting 2 24.4
2020-May-31 08:57 157 1 gusting 2 24.4
2020-May-31 08:47 157 2 gusting 3 24.4
2020-May-31 08:37 157 2 gusting 3 24.4
2020-May-31 08:27 157 2 gusting 2 24.4
2020-May-31 08:17 157 0 gusting 2 25.0
2020-May-31 08:07 157 3 gusting 4 25.0
2020-May-31 07:57 180 1 gusting 2 25.0
2020-May-31 07:47 157 1 gusting 2 25.0
2020-May-31 07:37 157 3 gusting 5 25.6
2020-May-31 07:27 157 1 gusting 1 25.6
2020-May-31 07:17 157 2 gusting 3 25.6
2020-May-31 07:07 180 1 gusting 3 25.6
2020-May-31 06:57 202 5 gusting 6 25.6
2020-May-31 06:47 180 4 gusting 6 26.1
2020-May-31 06:37 202 6 gusting 7 26.1
2020-May-31 06:27 202 6 gusting 7 26.1
2020-May-31 06:17 180 5 gusting 6 26.1
2020-May-31 06:07 202 5 gusting 6 26.1
2020-May-31 05:57 202 6 gusting 7 26.1
2020-May-31 05:47 180 4 gusting 6 26.1
2020-May-31 05:37 157 3 gusting 5 26.1
2020-May-31 05:27 157 3 gusting 6 26.7
2020-May-31 05:17 180 5 gusting 7 26.7
2020-May-31 05:07 157 3 gusting 5 26.7
2020-May-31 04:57 157 4 gusting 6 26.7
2020-May-31 04:47 157 6 gusting 7 26.7
2020-May-31 04:37 180 5 gusting 6 26.7
2020-May-31 04:27 180 3 gusting 5 27.2
2020-May-31 04:17 180 2 gusting 5 27.2
2020-May-31 04:07 180 4 gusting 6 27.2
2020-May-31 03:57 157 3 gusting 5 27.8
2020-May-31 03:47 157 4 gusting 6 27.8
2020-May-31 03:37 180 5 gusting 7 28.3
2020-May-31 03:27 180 4 gusting 6 28.9
2020-May-31 03:17 157 3 gusting 5 28.9
2020-May-31 03:07 157 5 gusting 6 29.4
2020-May-31 02:57 157 5 gusting 7 29.4
2020-May-31 02:47 157 4 gusting 6 30.0
2020-May-31 02:37 180 4 gusting 6 30.6
2020-May-31 02:27 157 4 gusting 6 30.6
2020-May-31 02:17 157 7 gusting 10 31.1
2020-May-31 02:07 157 5 gusting 7 31.7
2020-May-31 01:57 157 5 gusting 7 32.2
2020-May-31 01:47 157 7 gusting 10 32.8
2020-May-31 01:37 180 6 gusting 12 33.3
2020-May-31 01:27 157 6 gusting 7 33.9
2020-May-31 01:17 180 7 gusting 10 33.9
2020-May-31 01:07 157 10 gusting 13 34.4
2020-May-31 00:57 157 11 gusting 13 34.4
2020-May-31 00:47 157 11 gusting 13 35.0
2020-May-31 00:37 157 6 gusting 10 35.6
2020-May-31 00:27 180 6 gusting 10 36.1
2020-May-31 00:17 180 6 gusting 8 36.7
2020-May-31 00:07 157 6 gusting 12 36.7
2020-May-30 23:57 180 7 gusting 10 36.1
2020-May-30 23:47 180 10 gusting 12 36.7
2020-May-30 23:37 180 6 gusting 11 36.7
2020-May-30 23:27 180 6 gusting 10 37.2
2020-May-30 23:17 202 10 gusting 14 37.2
2020-May-30 23:07 202 9 gusting 13 37.8
2020-May-30 22:57 202 9 gusting 13 37.8
2020-May-30 22:47 202 13 gusting 16 37.8
2020-May-30 22:37 180 6 gusting 11 38.3
2020-May-30 22:27 157 8 gusting 12 38.9
2020-May-30 22:17 157 8 gusting 12 38.9
2020-May-30 22:07 180 6 gusting 9 38.9
2020-May-30 21:57 180 9 gusting 13 38.3
2020-May-30 21:47 180 7 gusting 11 38.9
2020-May-30 21:37 202 9 gusting 13 38.9
2020-May-30 21:27 180 6 gusting 8 38.9
2020-May-30 21:17 180 8 gusting 10 38.9
2020-May-30 21:07 202 9 gusting 15 38.3
2020-May-30 20:57 202 11 gusting 13 38.3
2020-May-30 20:47 202 9 gusting 11 38.3
2020-May-30 20:37 202 8 gusting 11 38.9
2020-May-30 20:27 202 4 gusting 6 38.3
2020-May-30 20:17 202 4 gusting 6 38.3
2020-May-30 20:07 202 8 gusting 12 38.3
2020-May-30 19:57 180 6 gusting 8 38.9
2020-May-30 19:47 180 4 gusting 6 38.3
2020-May-30 19:37 202 5 gusting 9 37.8
2020-May-30 19:27 157 3 gusting 5 37.2
2020-May-30 19:17 202 5 gusting 7 37.2
2020-May-30 19:07 247 5 gusting 8 36.7
2020-May-30 18:57 247 3 gusting 6 36.1
2020-May-30 18:47 225 0 gusting 1 36.1
2020-May-30 18:37 225 6 gusting 8 35.6
2020-May-30 18:27 202 3 gusting 6 35.0
2020-May-30 18:17 180 3 gusting 6 34.4
2020-May-30 18:07 202 2 gusting 6 34.4
2020-May-30 17:57 225 5 gusting 7 33.9
2020-May-30 17:47 225 1 gusting 6 33.9
2020-May-30 17:37 157 1 gusting 4 33.3
2020-May-30 17:27 225 4 gusting 5 32.8
2020-May-30 17:17 225 2 gusting 4 32.2
2020-May-30 17:07 225 3 gusting 6 32.2
2020-May-30 16:57 180 5 gusting 6 32.2
2020-May-30 16:47 225 3 gusting 6 31.7
2020-May-30 16:37 202 3 gusting 5 31.7
2020-May-30 16:27 157 3 gusting 6 30.6
2020-May-30 16:17 180 3 gusting 5 29.4
2020-May-30 16:07 180 5 gusting 6 29.4
2020-May-30 15:57 157 3 gusting 4 29.4
2020-May-30 15:47 157 4 gusting 7 29.4
2020-May-30 15:37 157 4 gusting 6 28.9
2020-May-30 15:27 157 3 gusting 4 28.3
2020-May-30 13:57 247 2 gusting 3 25.0
2020-May-30 12:07 045 2 gusting 2 22.8
2020-May-30 11:57 045 2 gusting 3 22.8
2020-May-30 11:47 045 3 gusting 4 22.8
2020-May-30 11:37 045 2 gusting 3 22.8
2020-May-30 11:28 045 1 gusting 2 22.8
2020-May-30 10:37 045 2 gusting 3 23.3
2020-May-30 10:07 23.3
2020-May-30 09:59 23.9
2020-May-30 09:07 180 0 gusting 1 23.9
2020-May-30 08:59 180 0 gusting 0 23.9
2020-May-30 08:37 180 2 gusting 2 23.9
2020-May-30 08:27 180 1 gusting 2 23.9
2020-May-30 08:17 180 0 gusting 1 24.4
2020-May-30 08:07 24.4
2020-May-30 07:57 157 0 gusting 1 24.4
2020-May-30 07:47 157 0 gusting 1 24.4
2020-May-30 07:37 157 1 gusting 1 24.4
2020-May-30 07:27 25.0
2020-May-30 07:17 112 1 gusting 2 25.0
2020-May-30 07:07 112 2 gusting 3 25.0
2020-May-30 06:57 112 1 gusting 2 25.0
2020-May-30 06:51 112 2 gusting 2 25.6
2020-May-30 06:41 112 1 gusting 1 25.6
2020-May-30 06:31 26.1
2020-May-30 06:21 26.1
2020-May-30 06:11 112 0 gusting 1 26.1
2020-May-30 06:01 112 0 gusting 1 26.1
2020-May-30 05:51 112 0 gusting 0 26.1
2020-May-30 05:41 112 2 gusting 3 26.1
2020-May-30 05:31 112 3 gusting 5 26.1
2020-May-30 05:21 112 2 gusting 3 26.1
2020-May-30 05:11 225 2 gusting 3 26.7
2020-May-30 05:01 225 3 gusting 4 26.7
2020-May-30 04:51 225 3 gusting 4 26.7
2020-May-30 04:41 180 2 gusting 3 26.7
2020-May-30 04:31 157 2 gusting 3 26.7
2020-May-30 04:21 202 1 gusting 2 26.7
2020-May-30 04:11 157 4 gusting 5 27.2
2020-May-30 04:01 202 4 gusting 5 27.2
2020-May-30 03:51 157 3 gusting 5 27.2
2020-May-30 03:41 180 4 gusting 5 27.8
2020-May-30 03:31 180 5 gusting 6 27.8
2020-May-30 03:21 180 5 gusting 7 28.3
2020-May-30 03:11 157 5 gusting 9 28.3
2020-May-30 03:01 180 6 gusting 8 28.9
2020-May-30 02:51 180 6 gusting 7 28.9
2020-May-30 02:41 180 5 gusting 8 29.4
2020-May-30 02:31 180 4 gusting 7 30.0
2020-May-30 02:21 157 6 gusting 8 30.6
2020-May-30 02:11 180 5 gusting 7 31.1
2020-May-30 02:01 180 7 gusting 9 31.7
2020-May-30 01:51 157 6 gusting 10 31.7
2020-May-30 01:41 157 6 gusting 9 32.2
2020-May-30 01:31 157 12 gusting 15 32.8
2020-May-30 01:21 157 12 gusting 13 33.3
2020-May-30 01:11 157 5 gusting 7 33.9
2020-May-30 01:01 157 8 gusting 14 33.9
2020-May-30 00:51 157 9 gusting 14 34.4
2020-May-30 00:41 157 9 gusting 13 34.4
2020-May-30 00:31 157 10 gusting 14 35.0
2020-May-30 00:21 180 6 gusting 10 35.0
2020-May-30 00:11 180 6 gusting 8 35.6
2020-May-30 00:01 157 12 gusting 16 36.1
2020-May-29 23:51 180 7 gusting 12 36.1
2020-May-29 23:41 157 6 gusting 9 36.7
2020-May-29 23:31 180 7 gusting 12 36.7
2020-May-29 23:21 180 6 gusting 8 37.2
2020-May-29 23:11 157 6 gusting 10 37.2
2020-May-29 23:01 180 7 gusting 10 36.7
2020-May-29 22:51 202 7 gusting 13 37.2
2020-May-29 22:41 202 7 gusting 11 37.8
2020-May-29 22:31 157 6 gusting 10 37.8
2020-May-29 22:21 202 7 gusting 12 37.2
2020-May-29 22:11 202 6 gusting 10 37.2
2020-May-29 22:01 180 8 gusting 10 36.7
2020-May-29 21:51 202 7 gusting 12 36.7
2020-May-29 21:41 202 6 gusting 9 36.7
2020-May-29 21:31 157 3 gusting 7 36.7
2020-May-29 21:21 157 4 gusting 7 37.2
2020-May-29 21:11 202 6 gusting 8 36.7
2020-May-29 21:01 225 7 gusting 12 37.2
2020-May-29 20:51 157 4 gusting 6 36.7
2020-May-29 20:41 157 6 gusting 8 36.7
2020-May-29 20:31 202 6 gusting 8 36.1
2020-May-29 20:21 202 4 gusting 8 36.1
2020-May-29 20:11 202 6 gusting 8 35.6
2020-May-29 20:01 202 3 gusting 6 35.6
2020-May-29 19:51 225 5 gusting 10 35.6
2020-May-29 19:41 157 4 gusting 7 35.6
2020-May-29 19:31 157 3 gusting 4 35.6
2020-May-29 19:21 157 6 gusting 7 35.6
2020-May-29 19:11 180 6 gusting 10 36.1
2020-May-29 19:01 135 6 gusting 7 35.6
2020-May-29 18:51 180 3 gusting 6 34.4
2020-May-29 18:41 202 3 gusting 4 33.9
2020-May-29 18:31 180 5 gusting 7 33.3
2020-May-29 18:21 202 6 gusting 9 33.3
2020-May-29 18:11 202 6 gusting 8 33.3
2020-May-29 18:01 225 6 gusting 8 33.3
2020-May-29 17:51 157 3 gusting 6 32.8
2020-May-29 17:41 157 3 gusting 6 32.2
2020-May-29 17:31 180 6 gusting 9 32.2
2020-May-29 17:21 225 5 gusting 8 31.7
2020-May-29 17:11 202 6 gusting 8 31.7
2020-May-29 17:02 202 6 gusting 8 31.7
2020-May-29 16:51 202 7 gusting 8 31.7
2020-May-29 16:41 157 2 gusting 4 31.7
2020-May-29 16:31 135 5 gusting 10 31.1
2020-May-29 16:21 112 5 gusting 9 30.6
2020-May-29 16:11 157 3 gusting 5 30.6
2020-May-29 16:01 180 3 gusting 5 30.0
2020-May-29 15:51 135 0 gusting 1 29.4
2020-May-29 15:41 157 4 gusting 6 28.9
2020-May-29 15:31 180 3 gusting 4 28.3
2020-May-29 15:21 135 2 gusting 6 27.2
2020-May-29 15:11 180 3 gusting 4 27.2
2020-May-29 15:01 180 3 gusting 4 26.7
2020-May-29 14:51 180 0 gusting 3 26.1
2020-May-29 14:41 180 2 gusting 4 25.6
2020-May-29 14:31 180 0 gusting 1 25.0
2020-May-29 14:21 180 3 gusting 3 25.0
2020-May-29 14:11 225 2 gusting 3 25.0
2020-May-29 14:01 202 1 gusting 1 25.0
2020-May-29 13:51 135 0 gusting 0 25.0
2020-May-29 13:41 25.0
2020-May-29 13:31 135 0 gusting 0 23.9
2020-May-29 13:21 135 0 gusting 1 23.3
2020-May-29 13:01 135 0 gusting 0 22.2
2020-May-29 12:51 135 1 gusting 1 21.7
2020-May-29 12:41 135 0 gusting 0 21.7
2020-May-29 12:31 21.7
2020-May-29 12:11 21.1
2020-May-29 12:01 21.7